sensor_id;sensor_type;location;lat;lon;timestamp;P1;durP1;ratioP1;P2;durP2;ratioP2
51594;SDS011;37677;53.254;6.594;2023-05-19T00:01:10;12.23;;;6.20;;
51594;SDS011;37677;53.254;6.594;2023-05-19T00:03:53;16.10;;;6.45;;
51594;SDS011;37677;53.254;6.594;2023-05-19T00:06:22;21.58;;;7.47;;
51594;SDS011;37677;53.254;6.594;2023-05-19T00:08:49;16.27;;;6.50;;
51594;SDS011;37677;53.254;6.594;2023-05-19T00:11:35;14.73;;;6.40;;
51594;SDS011;37677;53.254;6.594;2023-05-19T00:14:03;17.52;;;6.78;;
51594;SDS011;37677;53.254;6.594;2023-05-19T00:16:31;15.63;;;6.97;;
51594;SDS011;37677;53.254;6.594;2023-05-19T00:18:58;19.42;;;6.88;;
51594;SDS011;37677;53.254;6.594;2023-05-19T00:21:25;17.15;;;6.75;;
51594;SDS011;37677;53.254;6.594;2023-05-19T00:23:51;16.10;;;6.00;;
51594;SDS011;37677;53.254;6.594;2023-05-19T00:26:17;19.55;;;6.97;;
51594;SDS011;37677;53.254;6.594;2023-05-19T00:28:42;19.70;;;7.13;;
51594;SDS011;37677;53.254;6.594;2023-05-19T00:31:08;22.30;;;7.00;;
51594;SDS011;37677;53.254;6.594;2023-05-19T00:33:34;23.55;;;6.75;;
51594;SDS011;37677;53.254;6.594;2023-05-19T00:36:01;17.80;;;6.68;;
51594;SDS011;37677;53.254;6.594;2023-05-19T00:38:31;20.70;;;6.07;;
51594;SDS011;37677;53.254;6.594;2023-05-19T00:40:57;12.50;;;5.30;;
51594;SDS011;37677;53.254;6.594;2023-05-19T00:43:23;20.13;;;7.10;;
51594;SDS011;37677;53.254;6.594;2023-05-19T00:45:50;13.35;;;6.10;;
51594;SDS011;37677;53.254;6.594;2023-05-19T00:48:15;25.40;;;6.57;;
51594;SDS011;37677;53.254;6.594;2023-05-19T00:50:41;21.60;;;6.22;;
51594;SDS011;37677;53.254;6.594;2023-05-19T00:53:07;20.35;;;6.53;;
51594;SDS011;37677;53.254;6.594;2023-05-19T00:55:33;13.45;;;5.22;;
51594;SDS011;37677;53.254;6.594;2023-05-19T00:58:02;15.82;;;5.88;;
51594;SDS011;37677;53.254;6.594;2023-05-19T01:00:30;13.80;;;4.95;;
51594;SDS011;37677;53.254;6.594;2023-05-19T01:02:55;13.45;;;5.03;;
51594;SDS011;37677;53.254;6.594;2023-05-19T01:05:21;14.02;;;5.10;;
51594;SDS011;37677;53.254;6.594;2023-05-19T01:07:47;14.38;;;5.15;;
51594;SDS011;37677;53.254;6.594;2023-05-19T01:10:17;15.75;;;4.80;;
51594;SDS011;37677;53.254;6.594;2023-05-19T01:12:45;9.32;;;4.72;;
51594;SDS011;37677;53.254;6.594;2023-05-19T01:15:11;9.95;;;4.10;;
51594;SDS011;37677;53.254;6.594;2023-05-19T01:17:59;17.52;;;5.43;;
51594;SDS011;37677;53.254;6.594;2023-05-19T01:26:03;12.98;;;5.13;;
51594;SDS011;37677;53.254;6.594;2023-05-19T01:31:30;16.63;;;5.20;;
51594;SDS011;37677;53.254;6.594;2023-05-19T01:33:56;14.10;;;4.78;;
51594;SDS011;37677;53.254;6.594;2023-05-19T01:36:23;14.60;;;4.85;;
51594;SDS011;37677;53.254;6.594;2023-05-19T01:38:51;13.07;;;5.07;;
51594;SDS011;37677;53.254;6.594;2023-05-19T01:41:20;14.20;;;5.00;;
51594;SDS011;37677;53.254;6.594;2023-05-19T01:43:47;15.73;;;4.80;;
51594;SDS011;37677;53.254;6.594;2023-05-19T01:46:13;12.57;;;5.10;;
51594;SDS011;37677;53.254;6.594;2023-05-19T01:48:40;16.27;;;5.63;;
51594;SDS011;37677;53.254;6.594;2023-05-19T01:51:07;15.07;;;4.85;;
51594;SDS011;37677;53.254;6.594;2023-05-19T01:53:33;15.23;;;4.75;;
51594;SDS011;37677;53.254;6.594;2023-05-19T01:55:58;16.42;;;5.22;;
51594;SDS011;37677;53.254;6.594;2023-05-19T01:58:46;12.80;;;4.70;;
51594;SDS011;37677;53.254;6.594;2023-05-19T02:04:12;20.55;;;5.93;;
51594;SDS011;37677;53.254;6.594;2023-05-19T02:09:50;17.98;;;5.13;;
51594;SDS011;37677;53.254;6.594;2023-05-19T02:12:33;18.50;;;5.50;;
51594;SDS011;37677;53.254;6.594;2023-05-19T02:15:10;16.92;;;5.40;;
51594;SDS011;37677;53.254;6.594;2023-05-19T02:17:45;24.38;;;5.68;;
51594;SDS011;37677;53.254;6.594;2023-05-19T02:20:16;17.38;;;5.47;;
51594;SDS011;37677;53.254;6.594;2023-05-19T02:22:42;19.95;;;5.82;;
51594;SDS011;37677;53.254;6.594;2023-05-19T02:25:08;15.13;;;4.88;;
51594;SDS011;37677;53.254;6.594;2023-05-19T02:27:35;19.88;;;5.47;;
51594;SDS011;37677;53.254;6.594;2023-05-19T02:30:02;16.90;;;5.10;;
51594;SDS011;37677;53.254;6.594;2023-05-19T02:32:28;18.23;;;5.65;;
51594;SDS011;37677;53.254;6.594;2023-05-19T02:34:54;13.20;;;4.97;;
51594;SDS011;37677;53.254;6.594;2023-05-19T02:37:20;17.45;;;5.38;;
51594;SDS011;37677;53.254;6.594;2023-05-19T02:39:48;26.10;;;5.30;;
51594;SDS011;37677;53.254;6.594;2023-05-19T02:42:13;15.73;;;5.22;;
51594;SDS011;37677;53.254;6.594;2023-05-19T02:44:41;20.00;;;5.93;;
51594;SDS011;37677;53.254;6.594;2023-05-19T02:47:07;14.07;;;5.18;;
51594;SDS011;37677;53.254;6.594;2023-05-19T02:49:33;11.38;;;4.50;;
51594;SDS011;37677;53.254;6.594;2023-05-19T02:52:00;12.15;;;4.47;;
51594;SDS011;37677;53.254;6.594;2023-05-19T02:54:29;15.60;;;4.40;;
51594;SDS011;37677;53.254;6.594;2023-05-19T02:56:55;13.38;;;4.40;;
51594;SDS011;37677;53.254;6.594;2023-05-19T02:59:21;17.35;;;4.60;;
51594;SDS011;37677;53.254;6.594;2023-05-19T03:01:47;19.88;;;5.35;;
51594;SDS011;37677;53.254;6.594;2023-05-19T03:04:13;14.40;;;4.85;;
51594;SDS011;37677;53.254;6.594;2023-05-19T03:06:38;19.45;;;5.43;;
51594;SDS011;37677;53.254;6.594;2023-05-19T03:09:04;13.98;;;4.90;;
51594;SDS011;37677;53.254;6.594;2023-05-19T03:11:30;11.95;;;4.90;;
51594;SDS011;37677;53.254;6.594;2023-05-19T03:13:57;13.70;;;4.75;;
51594;SDS011;37677;53.254;6.594;2023-05-19T03:16:22;15.45;;;5.18;;
51594;SDS011;37677;53.254;6.594;2023-05-19T03:18:48;17.30;;;5.55;;
51594;SDS011;37677;53.254;6.594;2023-05-19T03:21:14;18.55;;;5.22;;
51594;SDS011;37677;53.254;6.594;2023-05-19T03:23:41;20.30;;;5.45;;
51594;SDS011;37677;53.254;6.594;2023-05-19T03:26:06;10.52;;;4.32;;
51594;SDS011;37677;53.254;6.594;2023-05-19T03:28:32;22.10;;;6.38;;
51594;SDS011;37677;53.254;6.594;2023-05-19T03:30:58;16.00;;;5.47;;
51594;SDS011;37677;53.254;6.594;2023-05-19T03:33:24;18.83;;;6.53;;
51594;SDS011;37677;53.254;6.594;2023-05-19T03:35:53;13.07;;;5.78;;
51594;SDS011;37677;53.254;6.594;2023-05-19T03:38:19;21.67;;;7.00;;
51594;SDS011;37677;53.254;6.594;2023-05-19T03:40:45;31.25;;;7.70;;
51594;SDS011;37677;53.254;6.594;2023-05-19T03:43:11;18.90;;;6.68;;
51594;SDS011;37677;53.254;6.594;2023-05-19T03:45:37;23.02;;;7.78;;
51594;SDS011;37677;53.254;6.594;2023-05-19T03:48:02;19.60;;;7.20;;
51594;SDS011;37677;53.254;6.594;2023-05-19T03:50:28;20.98;;;7.13;;
51594;SDS011;37677;53.254;6.594;2023-05-19T03:52:55;23.88;;;7.18;;
51594;SDS011;37677;53.254;6.594;2023-05-19T03:55:22;16.17;;;6.30;;
51594;SDS011;37677;53.254;6.594;2023-05-19T03:57:48;19.02;;;6.65;;
51594;SDS011;37677;53.254;6.594;2023-05-19T04:00:13;24.75;;;6.50;;
51594;SDS011;37677;53.254;6.594;2023-05-19T04:02:40;13.38;;;5.57;;
51594;SDS011;37677;53.254;6.594;2023-05-19T04:05:06;16.10;;;6.57;;
51594;SDS011;37677;53.254;6.594;2023-05-19T04:07:33;11.32;;;5.88;;
51594;SDS011;37677;53.254;6.594;2023-05-19T04:09:59;13.98;;;5.43;;
51594;SDS011;37677;53.254;6.594;2023-05-19T04:12:27;13.02;;;5.55;;
51594;SDS011;37677;53.254;6.594;2023-05-19T04:14:53;13.50;;;5.40;;
51594;SDS011;37677;53.254;6.594;2023-05-19T04:17:18;14.20;;;5.07;;
51594;SDS011;37677;53.254;6.594;2023-05-19T04:19:45;16.70;;;5.93;;
51594;SDS011;37677;53.254;6.594;2023-05-19T04:22:11;15.32;;;6.55;;
51594;SDS011;37677;53.254;6.594;2023-05-19T04:24:37;11.20;;;5.53;;
51594;SDS011;37677;53.254;6.594;2023-05-19T04:27:02;15.65;;;5.60;;
51594;SDS011;37677;53.254;6.594;2023-05-19T04:29:29;15.88;;;5.10;;
51594;SDS011;37677;53.254;6.594;2023-05-19T04:31:56;15.70;;;5.15;;
51594;SDS011;37677;53.254;6.594;2023-05-19T04:34:22;14.05;;;4.97;;
51594;SDS011;37677;53.254;6.594;2023-05-19T04:36:48;13.43;;;5.30;;
51594;SDS011;37677;53.254;6.594;2023-05-19T04:39:14;9.32;;;5.00;;
51594;SDS011;37677;53.254;6.594;2023-05-19T04:41:39;10.52;;;4.53;;
51594;SDS011;37677;53.254;6.594;2023-05-19T04:44:06;8.50;;;5.05;;
51594;SDS011;37677;53.254;6.594;2023-05-19T04:46:33;7.28;;;4.25;;
51594;SDS011;37677;53.254;6.594;2023-05-19T04:48:59;8.85;;;4.88;;
51594;SDS011;37677;53.254;6.594;2023-05-19T04:51:27;5.97;;;4.38;;
51594;SDS011;37677;53.254;6.594;2023-05-19T04:53:55;10.38;;;5.05;;
51594;SDS011;37677;53.254;6.594;2023-05-19T04:56:21;10.13;;;4.53;;
51594;SDS011;37677;53.254;6.594;2023-05-19T04:58:47;9.57;;;5.45;;
51594;SDS011;37677;53.254;6.594;2023-05-19T05:01:13;10.55;;;5.47;;
51594;SDS011;37677;53.254;6.594;2023-05-19T05:03:42;15.60;;;6.45;;
51594;SDS011;37677;53.254;6.594;2023-05-19T05:06:08;10.77;;;5.57;;
51594;SDS011;37677;53.254;6.594;2023-05-19T05:08:35;12.38;;;6.03;;
51594;SDS011;37677;53.254;6.594;2023-05-19T05:11:04;15.15;;;6.78;;
51594;SDS011;37677;53.254;6.594;2023-05-19T05:13:30;13.55;;;6.60;;
51594;SDS011;37677;53.254;6.594;2023-05-19T05:15:56;14.57;;;7.00;;
51594;SDS011;37677;53.254;6.594;2023-05-19T05:18:22;15.60;;;6.15;;
51594;SDS011;37677;53.254;6.594;2023-05-19T05:20:48;15.20;;;5.72;;
51594;SDS011;37677;53.254;6.594;2023-05-19T05:23:14;15.68;;;5.57;;
51594;SDS011;37677;53.254;6.594;2023-05-19T05:25:40;15.88;;;7.20;;
51594;SDS011;37677;53.254;6.594;2023-05-19T05:28:07;16.92;;;6.85;;
51594;SDS011;37677;53.254;6.594;2023-05-19T05:30:33;16.70;;;6.70;;
51594;SDS011;37677;53.254;6.594;2023-05-19T05:32:59;14.65;;;7.05;;
51594;SDS011;37677;53.254;6.594;2023-05-19T05:35:26;19.95;;;7.68;;
51594;SDS011;37677;53.254;6.594;2023-05-19T05:37:52;15.32;;;7.95;;
51594;SDS011;37677;53.254;6.594;2023-05-19T05:40:18;19.25;;;8.25;;
51594;SDS011;37677;53.254;6.594;2023-05-19T05:42:44;16.55;;;8.35;;
51594;SDS011;37677;53.254;6.594;2023-05-19T05:45:10;18.95;;;9.10;;
51594;SDS011;37677;53.254;6.594;2023-05-19T05:47:36;18.80;;;8.23;;
51594;SDS011;37677;53.254;6.594;2023-05-19T05:50:04;19.15;;;9.18;;
51594;SDS011;37677;53.254;6.594;2023-05-19T05:52:30;17.60;;;7.85;;
51594;SDS011;37677;53.254;6.594;2023-05-19T05:54:57;15.30;;;7.85;;
51594;SDS011;37677;53.254;6.594;2023-05-19T05:57:23;17.88;;;7.43;;
51594;SDS011;37677;53.254;6.594;2023-05-19T05:59:49;20.35;;;7.97;;
51594;SDS011;37677;53.254;6.594;2023-05-19T06:02:15;16.17;;;7.13;;
51594;SDS011;37677;53.254;6.594;2023-05-19T06:04:41;14.88;;;7.35;;
51594;SDS011;37677;53.254;6.594;2023-05-19T06:07:08;17.40;;;7.47;;
51594;SDS011;37677;53.254;6.594;2023-05-19T06:09:34;19.27;;;7.93;;
51594;SDS011;37677;53.254;6.594;2023-05-19T06:11:59;18.48;;;7.50;;
51594;SDS011;37677;53.254;6.594;2023-05-19T06:14:25;12.32;;;7.10;;
51594;SDS011;37677;53.254;6.594;2023-05-19T06:16:51;14.82;;;7.38;;
51594;SDS011;37677;53.254;6.594;2023-05-19T06:19:17;16.45;;;7.20;;
51594;SDS011;37677;53.254;6.594;2023-05-19T06:21:46;18.25;;;7.28;;
51594;SDS011;37677;53.254;6.594;2023-05-19T06:24:12;12.35;;;6.25;;
51594;SDS011;37677;53.254;6.594;2023-05-19T06:26:38;13.23;;;6.80;;
51594;SDS011;37677;53.254;6.594;2023-05-19T06:29:05;13.50;;;6.70;;
51594;SDS011;37677;53.254;6.594;2023-05-19T06:31:30;13.05;;;6.65;;
51594;SDS011;37677;53.254;6.594;2023-05-19T06:33:57;15.10;;;6.00;;
51594;SDS011;37677;53.254;6.594;2023-05-19T06:36:24;18.27;;;6.72;;
51594;SDS011;37677;53.254;6.594;2023-05-19T06:38:53;14.25;;;6.30;;
51594;SDS011;37677;53.254;6.594;2023-05-19T06:41:18;13.75;;;5.40;;
51594;SDS011;37677;53.254;6.594;2023-05-19T06:43:45;13.15;;;5.45;;
51594;SDS011;37677;53.254;6.594;2023-05-19T06:46:11;14.23;;;6.03;;
51594;SDS011;37677;53.254;6.594;2023-05-19T06:48:37;11.60;;;5.10;;
51594;SDS011;37677;53.254;6.594;2023-05-19T06:51:03;12.32;;;5.35;;
51594;SDS011;37677;53.254;6.594;2023-05-19T06:53:29;11.85;;;5.18;;
51594;SDS011;37677;53.254;6.594;2023-05-19T06:55:55;13.18;;;5.32;;
51594;SDS011;37677;53.254;6.594;2023-05-19T06:58:21;11.90;;;4.38;;
51594;SDS011;37677;53.254;6.594;2023-05-19T07:00:46;11.00;;;4.70;;
51594;SDS011;37677;53.254;6.594;2023-05-19T07:03:12;10.82;;;4.68;;
51594;SDS011;37677;53.254;6.594;2023-05-19T07:05:38;12.25;;;4.15;;
51594;SDS011;37677;53.254;6.594;2023-05-19T07:08:04;10.75;;;4.25;;
51594;SDS011;37677;53.254;6.594;2023-05-19T07:10:30;15.48;;;3.95;;
51594;SDS011;37677;53.254;6.594;2023-05-19T07:12:56;10.25;;;3.58;;
51594;SDS011;37677;53.254;6.594;2023-05-19T07:15:22;10.93;;;3.95;;
51594;SDS011;37677;53.254;6.594;2023-05-19T07:17:48;10.88;;;3.97;;
51594;SDS011;37677;53.254;6.594;2023-05-19T07:20:14;8.35;;;4.00;;
51594;SDS011;37677;53.254;6.594;2023-05-19T07:22:39;10.45;;;4.03;;
51594;SDS011;37677;53.254;6.594;2023-05-19T07:25:06;12.27;;;3.75;;
51594;SDS011;37677;53.254;6.594;2023-05-19T07:27:32;7.88;;;2.90;;
51594;SDS011;37677;53.254;6.594;2023-05-19T07:29:58;6.55;;;2.95;;
51594;SDS011;37677;53.254;6.594;2023-05-19T07:32:24;10.40;;;3.40;;
51594;SDS011;37677;53.254;6.594;2023-05-19T07:34:50;10.20;;;3.45;;
51594;SDS011;37677;53.254;6.594;2023-05-19T07:37:16;11.88;;;3.95;;
51594;SDS011;37677;53.254;6.594;2023-05-19T07:39:41;8.25;;;3.50;;
51594;SDS011;37677;53.254;6.594;2023-05-19T07:42:07;7.68;;;3.47;;
51594;SDS011;37677;53.254;6.594;2023-05-19T07:44:33;11.63;;;3.97;;
51594;SDS011;37677;53.254;6.594;2023-05-19T07:46:59;10.20;;;3.53;;
51594;SDS011;37677;53.254;6.594;2023-05-19T07:49:25;11.55;;;3.72;;
51594;SDS011;37677;53.254;6.594;2023-05-19T07:51:51;8.93;;;2.80;;
51594;SDS011;37677;53.254;6.594;2023-05-19T07:54:17;7.32;;;3.10;;
51594;SDS011;37677;53.254;6.594;2023-05-19T07:56:43;9.65;;;3.38;;
51594;SDS011;37677;53.254;6.594;2023-05-19T07:59:09;8.88;;;3.05;;
51594;SDS011;37677;53.254;6.594;2023-05-19T08:01:37;9.50;;;3.35;;
51594;SDS011;37677;53.254;6.594;2023-05-19T08:04:03;7.80;;;3.00;;
51594;SDS011;37677;53.254;6.594;2023-05-19T08:06:29;7.10;;;2.58;;
51594;SDS011;37677;53.254;6.594;2023-05-19T08:08:55;10.10;;;3.63;;
51594;SDS011;37677;53.254;6.594;2023-05-19T08:11:21;14.75;;;8.35;;
51594;SDS011;37677;53.254;6.594;2023-05-19T08:13:47;6.78;;;3.40;;
51594;SDS011;37677;53.254;6.594;2023-05-19T08:16:16;11.50;;;3.40;;
51594;SDS011;37677;53.254;6.594;2023-05-19T08:18:42;7.38;;;3.20;;
51594;SDS011;37677;53.254;6.594;2023-05-19T08:21:08;6.88;;;2.65;;
51594;SDS011;37677;53.254;6.594;2023-05-19T08:23:33;11.32;;;3.85;;
51594;SDS011;37677;53.254;6.594;2023-05-19T08:26:01;8.18;;;2.58;;
51594;SDS011;37677;53.254;6.594;2023-05-19T08:28:27;10.10;;;3.03;;
51594;SDS011;37677;53.254;6.594;2023-05-19T08:30:53;8.27;;;3.20;;
51594;SDS011;37677;53.254;6.594;2023-05-19T08:33:18;6.85;;;2.90;;
51594;SDS011;37677;53.254;6.594;2023-05-19T08:35:47;12.60;;;3.45;;
51594;SDS011;37677;53.254;6.594;2023-05-19T08:38:13;9.88;;;3.17;;
51594;SDS011;37677;53.254;6.594;2023-05-19T08:40:41;10.45;;;3.75;;
51594;SDS011;37677;53.254;6.594;2023-05-19T08:43:10;11.25;;;3.20;;
51594;SDS011;37677;53.254;6.594;2023-05-19T08:45:37;9.23;;;3.40;;
51594;SDS011;37677;53.254;6.594;2023-05-19T08:48:06;10.18;;;3.53;;
51594;SDS011;37677;53.254;6.594;2023-05-19T08:50:34;12.52;;;3.33;;
51594;SDS011;37677;53.254;6.594;2023-05-19T08:55:41;6.18;;;2.75;;
51594;SDS011;37677;53.254;6.594;2023-05-19T08:58:15;6.22;;;2.90;;
51594;SDS011;37677;53.254;6.594;2023-05-19T09:00:44;7.05;;;3.10;;
51594;SDS011;37677;53.254;6.594;2023-05-19T09:03:11;8.50;;;3.20;;
51594;SDS011;37677;53.254;6.594;2023-05-19T09:05:39;7.85;;;3.42;;
51594;SDS011;37677;53.254;6.594;2023-05-19T09:08:06;14.98;;;3.75;;
51594;SDS011;37677;53.254;6.594;2023-05-19T09:10:32;7.85;;;3.28;;
51594;SDS011;37677;53.254;6.594;2023-05-19T09:12:58;7.18;;;3.10;;
51594;SDS011;37677;53.254;6.594;2023-05-19T09:15:26;8.15;;;3.83;;
51594;SDS011;37677;53.254;6.594;2023-05-19T09:18:04;8.18;;;3.30;;
51594;SDS011;37677;53.254;6.594;2023-05-19T09:20:32;9.68;;;3.30;;
51594;SDS011;37677;53.254;6.594;2023-05-19T09:23:02;7.60;;;3.75;;
51594;SDS011;37677;53.254;6.594;2023-05-19T09:25:29;9.20;;;3.25;;
51594;SDS011;37677;53.254;6.594;2023-05-19T09:27:56;12.50;;;4.15;;
51594;SDS011;37677;53.254;6.594;2023-05-19T09:30:23;8.50;;;2.95;;
51594;SDS011;37677;53.254;6.594;2023-05-19T09:32:49;10.55;;;3.58;;
51594;SDS011;37677;53.254;6.594;2023-05-19T09:35:16;9.18;;;3.65;;
51594;SDS011;37677;53.254;6.594;2023-05-19T09:37:44;7.63;;;3.05;;
51594;SDS011;37677;53.254;6.594;2023-05-19T09:40:12;12.68;;;3.25;;
51594;SDS011;37677;53.254;6.594;2023-05-19T09:42:39;8.93;;;3.42;;
51594;SDS011;37677;53.254;6.594;2023-05-19T09:45:06;9.13;;;2.88;;
51594;SDS011;37677;53.254;6.594;2023-05-19T09:47:36;7.05;;;3.25;;
51594;SDS011;37677;53.254;6.594;2023-05-19T09:50:08;9.20;;;2.80;;
51594;SDS011;37677;53.254;6.594;2023-05-19T09:52:38;7.10;;;2.88;;
51594;SDS011;37677;53.254;6.594;2023-05-19T09:55:05;8.18;;;2.80;;
51594;SDS011;37677;53.254;6.594;2023-05-19T09:57:37;8.18;;;3.40;;
51594;SDS011;37677;53.254;6.594;2023-05-19T10:00:07;6.22;;;3.25;;
51594;SDS011;37677;53.254;6.594;2023-05-19T10:02:42;7.78;;;3.45;;
51594;SDS011;37677;53.254;6.594;2023-05-19T10:05:13;7.35;;;3.33;;
51594;SDS011;37677;53.254;6.594;2023-05-19T10:07:46;8.18;;;3.03;;
51594;SDS011;37677;53.254;6.594;2023-05-19T10:10:15;6.70;;;3.15;;
51594;SDS011;37677;53.254;6.594;2023-05-19T10:12:43;11.35;;;4.20;;
51594;SDS011;37677;53.254;6.594;2023-05-19T10:15:10;7.15;;;3.15;;
51594;SDS011;37677;53.254;6.594;2023-05-19T10:17:38;7.00;;;2.92;;
51594;SDS011;37677;53.254;6.594;2023-05-19T10:20:11;8.05;;;2.83;;
51594;SDS011;37677;53.254;6.594;2023-05-19T10:22:38;10.77;;;3.70;;
51594;SDS011;37677;53.254;6.594;2023-05-19T10:25:06;8.55;;;3.30;;
51594;SDS011;37677;53.254;6.594;2023-05-19T10:27:34;8.82;;;3.72;;
51594;SDS011;37677;53.254;6.594;2023-05-19T10:30:05;8.10;;;3.22;;
51594;SDS011;37677;53.254;6.594;2023-05-19T10:32:33;7.10;;;3.00;;
51594;SDS011;37677;53.254;6.594;2023-05-19T10:37:58;12.40;;;3.55;;
51594;SDS011;37677;53.254;6.594;2023-05-19T10:40:56;6.38;;;3.05;;
51594;SDS011;37677;53.254;6.594;2023-05-19T10:43:46;8.18;;;2.92;;
51594;SDS011;37677;53.254;6.594;2023-05-19T10:46:28;11.57;;;3.65;;
51594;SDS011;37677;53.254;6.594;2023-05-19T10:48:54;7.88;;;3.22;;
51594;SDS011;37677;53.254;6.594;2023-05-19T10:51:27;6.13;;;3.03;;
51594;SDS011;37677;53.254;6.594;2023-05-19T10:53:55;9.25;;;3.55;;
51594;SDS011;37677;53.254;6.594;2023-05-19T10:56:32;10.60;;;4.07;;
51594;SDS011;37677;53.254;6.594;2023-05-19T10:59:00;9.45;;;3.70;;
51594;SDS011;37677;53.254;6.594;2023-05-19T11:01:30;8.32;;;3.38;;
51594;SDS011;37677;53.254;6.594;2023-05-19T11:04:03;9.57;;;3.80;;
51594;SDS011;37677;53.254;6.594;2023-05-19T11:06:36;8.25;;;3.10;;
51594;SDS011;37677;53.254;6.594;2023-05-19T11:11:49;9.85;;;3.63;;
51594;SDS011;37677;53.254;6.594;2023-05-19T11:14:17;13.13;;;3.95;;
51594;SDS011;37677;53.254;6.594;2023-05-19T11:16:48;6.45;;;2.78;;
51594;SDS011;37677;53.254;6.594;2023-05-19T11:21:54;6.72;;;2.90;;
51594;SDS011;37677;53.254;6.594;2023-05-19T11:29:45;9.55;;;3.10;;
51594;SDS011;37677;53.254;6.594;2023-05-19T11:32:12;8.35;;;3.22;;
51594;SDS011;37677;53.254;6.594;2023-05-19T11:34:39;7.57;;;3.15;;
51594;SDS011;37677;53.254;6.594;2023-05-19T11:37:05;7.07;;;3.05;;
51594;SDS011;37677;53.254;6.594;2023-05-19T11:39:31;6.95;;;2.65;;
51594;SDS011;37677;53.254;6.594;2023-05-19T11:41:57;8.65;;;3.20;;
51594;SDS011;37677;53.254;6.594;2023-05-19T11:44:23;12.30;;;3.05;;
51594;SDS011;37677;53.254;6.594;2023-05-19T11:46:48;12.60;;;3.38;;
51594;SDS011;37677;53.254;6.594;2023-05-19T11:49:14;7.45;;;2.88;;
51594;SDS011;37677;53.254;6.594;2023-05-19T11:51:43;10.95;;;3.40;;
51594;SDS011;37677;53.254;6.594;2023-05-19T11:54:10;5.63;;;2.97;;
51594;SDS011;37677;53.254;6.594;2023-05-19T11:56:42;5.97;;;2.75;;
51594;SDS011;37677;53.254;6.594;2023-05-19T11:59:08;6.90;;;2.83;;
51594;SDS011;37677;53.254;6.594;2023-05-19T12:01:34;10.70;;;3.22;;
51594;SDS011;37677;53.254;6.594;2023-05-19T12:04:09;8.35;;;3.00;;
51594;SDS011;37677;53.254;6.594;2023-05-19T12:06:35;7.28;;;2.97;;
51594;SDS011;37677;53.254;6.594;2023-05-19T12:09:04;7.45;;;3.05;;
51594;SDS011;37677;53.254;6.594;2023-05-19T12:11:29;9.98;;;2.97;;
51594;SDS011;37677;53.254;6.594;2023-05-19T12:13:58;7.38;;;3.08;;
51594;SDS011;37677;53.254;6.594;2023-05-19T12:16:32;9.75;;;3.17;;
51594;SDS011;37677;53.254;6.594;2023-05-19T12:18:59;8.10;;;3.00;;
51594;SDS011;37677;53.254;6.594;2023-05-19T12:21:25;7.22;;;3.55;;
51594;SDS011;37677;53.254;6.594;2023-05-19T12:23:51;8.15;;;3.38;;
51594;SDS011;37677;53.254;6.594;2023-05-19T12:26:17;8.00;;;2.88;;
51594;SDS011;37677;53.254;6.594;2023-05-19T12:28:46;8.77;;;3.05;;
51594;SDS011;37677;53.254;6.594;2023-05-19T12:31:12;8.18;;;3.47;;
51594;SDS011;37677;53.254;6.594;2023-05-19T12:33:37;10.65;;;3.53;;
51594;SDS011;37677;53.254;6.594;2023-05-19T12:36:03;7.30;;;3.33;;
51594;SDS011;37677;53.254;6.594;2023-05-19T12:38:29;7.93;;;3.13;;
51594;SDS011;37677;53.254;6.594;2023-05-19T12:40:57;7.85;;;3.13;;
51594;SDS011;37677;53.254;6.594;2023-05-19T12:43:23;7.22;;;2.80;;
51594;SDS011;37677;53.254;6.594;2023-05-19T12:45:49;10.50;;;3.60;;
51594;SDS011;37677;53.254;6.594;2023-05-19T12:48:16;8.65;;;2.97;;
51594;SDS011;37677;53.254;6.594;2023-05-19T12:50:42;12.77;;;3.53;;
51594;SDS011;37677;53.254;6.594;2023-05-19T12:53:11;8.57;;;3.90;;
51594;SDS011;37677;53.254;6.594;2023-05-19T12:55:38;8.07;;;2.85;;
51594;SDS011;37677;53.254;6.594;2023-05-19T12:58:06;8.57;;;3.20;;
51594;SDS011;37677;53.254;6.594;2023-05-19T13:00:32;8.90;;;2.97;;
51594;SDS011;37677;53.254;6.594;2023-05-19T13:03:06;10.15;;;3.20;;
51594;SDS011;37677;53.254;6.594;2023-05-19T13:05:39;6.43;;;3.10;;
51594;SDS011;37677;53.254;6.594;2023-05-19T13:08:10;8.75;;;3.40;;
51594;SDS011;37677;53.254;6.594;2023-05-19T13:10:41;7.78;;;3.10;;
51594;SDS011;37677;53.254;6.594;2023-05-19T13:13:08;6.80;;;2.90;;
51594;SDS011;37677;53.254;6.594;2023-05-19T13:15:35;9.88;;;3.03;;
51594;SDS011;37677;53.254;6.594;2023-05-19T13:18:04;11.02;;;3.45;;
51594;SDS011;37677;53.254;6.594;2023-05-19T13:20:31;9.35;;;3.58;;
51594;SDS011;37677;53.254;6.594;2023-05-19T13:22:58;11.25;;;3.85;;
51594;SDS011;37677;53.254;6.594;2023-05-19T13:25:24;9.52;;;3.53;;
51594;SDS011;37677;53.254;6.594;2023-05-19T13:27:50;15.50;;;4.07;;
51594;SDS011;37677;53.254;6.594;2023-05-19T13:30:17;9.48;;;3.75;;
51594;SDS011;37677;53.254;6.594;2023-05-19T13:32:43;11.88;;;4.70;;
51594;SDS011;37677;53.254;6.594;2023-05-19T13:35:10;14.55;;;4.45;;
51594;SDS011;37677;53.254;6.594;2023-05-19T13:37:37;14.80;;;4.57;;
51594;SDS011;37677;53.254;6.594;2023-05-19T13:40:03;11.02;;;4.95;;
51594;SDS011;37677;53.254;6.594;2023-05-19T13:42:33;10.93;;;4.55;;
51594;SDS011;37677;53.254;6.594;2023-05-19T13:44:59;14.93;;;5.00;;
51594;SDS011;37677;53.254;6.594;2023-05-19T13:47:25;16.63;;;5.05;;
51594;SDS011;37677;53.254;6.594;2023-05-19T13:49:52;9.80;;;4.25;;
51594;SDS011;37677;53.254;6.594;2023-05-19T13:52:18;16.17;;;5.05;;
51594;SDS011;37677;53.254;6.594;2023-05-19T13:54:44;15.52;;;5.03;;
51594;SDS011;37677;53.254;6.594;2023-05-19T13:57:11;12.88;;;4.35;;
51594;SDS011;37677;53.254;6.594;2023-05-19T13:59:36;10.65;;;4.30;;
51594;SDS011;37677;53.254;6.594;2023-05-19T14:02:02;15.13;;;5.07;;
51594;SDS011;37677;53.254;6.594;2023-05-19T14:04:28;11.00;;;4.53;;
51594;SDS011;37677;53.254;6.594;2023-05-19T14:06:54;13.55;;;5.53;;
51594;SDS011;37677;53.254;6.594;2023-05-19T14:09:21;13.68;;;5.25;;
51594;SDS011;37677;53.254;6.594;2023-05-19T14:11:47;12.02;;;5.10;;
51594;SDS011;37677;53.254;6.594;2023-05-19T14:14:12;11.55;;;4.53;;
51594;SDS011;37677;53.254;6.594;2023-05-19T14:16:41;11.20;;;5.13;;
51594;SDS011;37677;53.254;6.594;2023-05-19T14:19:09;15.10;;;5.18;;
51594;SDS011;37677;53.254;6.594;2023-05-19T14:21:35;15.13;;;4.70;;
51594;SDS011;37677;53.254;6.594;2023-05-19T14:24:02;14.75;;;4.70;;
51594;SDS011;37677;53.254;6.594;2023-05-19T14:26:28;12.30;;;5.30;;
51594;SDS011;37677;53.254;6.594;2023-05-19T14:28:53;14.20;;;5.15;;
51594;SDS011;37677;53.254;6.594;2023-05-19T14:31:21;14.32;;;5.07;;
51594;SDS011;37677;53.254;6.594;2023-05-19T14:33:47;12.15;;;4.40;;
51594;SDS011;37677;53.254;6.594;2023-05-19T14:36:13;16.15;;;4.53;;
51594;SDS011;37677;53.254;6.594;2023-05-19T14:38:38;16.17;;;4.68;;
51594;SDS011;37677;53.254;6.594;2023-05-19T14:41:07;17.42;;;4.25;;
51594;SDS011;37677;53.254;6.594;2023-05-19T14:43:33;19.38;;;4.55;;
51594;SDS011;37677;53.254;6.594;2023-05-19T14:45:59;15.35;;;4.47;;
51594;SDS011;37677;53.254;6.594;2023-05-19T14:48:25;15.90;;;4.43;;
51594;SDS011;37677;53.254;6.594;2023-05-19T14:50:51;16.67;;;4.65;;
51594;SDS011;37677;53.254;6.594;2023-05-19T14:53:16;13.05;;;4.15;;
51594;SDS011;37677;53.254;6.594;2023-05-19T14:55:46;15.23;;;4.13;;
51594;SDS011;37677;53.254;6.594;2023-05-19T14:58:14;17.27;;;4.22;;
51594;SDS011;37677;53.254;6.594;2023-05-19T15:00:41;13.65;;;4.25;;
51594;SDS011;37677;53.254;6.594;2023-05-19T15:03:07;11.75;;;4.43;;
51594;SDS011;37677;53.254;6.594;2023-05-19T15:05:36;11.68;;;4.40;;
51594;SDS011;37677;53.254;6.594;2023-05-19T15:08:06;11.18;;;3.65;;
51594;SDS011;37677;53.254;6.594;2023-05-19T15:10:32;11.70;;;4.55;;